Time;durP1;ratioP1;P1;durP2;ratioP2;P2;SDS_P1;SDS_P2;PMS_P1;PMS_P2;Temp;Humidity;BMP_temperature;BMP_pressure;BME280_temperature;BME280_humidity;BME280_pressure;Samples;Min_cycle;Max_cycle;Signal;HPM_P1;HPM_P2
2023/11/30 00:00:20;;;;;;;4.50;2.87;;;10.70;99.90;;;11.98;52.85;99868.13;4874336;28;116712;-51
2023/11/30 00:02:46;;;;;;;3.50;2.67;;;10.70;99.90;;;11.93;52.82;99856.13;4887719;28;102318;-50
2023/11/30 00:05:12;;;;;;;2.50;2.27;;;10.60;99.90;;;12.11;53.11;99866.53;4877208;28;102601;-51
2023/11/30 00:07:38;;;;;;;3.33;2.57;;;10.90;99.90;;;12.10;51.99;99864.00;4893437;28;97111;-49
2023/11/30 00:10:04;;;;;;;4.00;2.77;;;11.00;99.90;;;11.97;52.41;99863.78;4890547;28;99957;-53
2023/11/30 00:12:30;;;;;;;4.67;2.87;;;10.70;99.90;;;11.78;49.64;99855.13;4888591;28;97867;-52
2023/11/30 00:14:56;;;;;;;4.73;3.10;;;10.40;99.90;;;11.62;51.74;99853.28;4872755;28;100074;-49
2023/11/30 00:17:22;;;;;;;3.57;2.23;;;10.20;99.90;;;11.73;53.32;99859.81;4893383;28;97573;-51
2023/11/30 00:19:48;;;;;;;3.93;2.60;;;10.30;99.90;;;11.72;53.06;99860.75;4897975;28;97365;-48
2023/11/30 00:22:14;;;;;;;3.33;2.77;;;10.20;99.90;;;11.61;53.60;99859.50;4893181;28;98892;-51
2023/11/30 00:24:40;;;;;;;3.97;2.80;;;10.20;99.90;;;11.77;53.89;99861.34;4875910;28;97127;-49
2023/11/30 00:27:05;;;;;;;4.10;2.43;;;10.30;99.90;;;11.95;53.55;99855.09;4890580;28;98948;-50
2023/11/30 00:29:31;;;;;;;6.07;2.60;;;10.70;99.90;;;12.13;52.98;99848.81;4891876;28;97450;-51
2023/11/30 00:31:57;;;;;;;4.80;2.97;;;11.10;99.90;;;12.17;50.87;99845.09;4880452;28;99690;-49
2023/11/30 00:34:23;;;;;;;2.67;2.27;;;11.20;99.90;;;12.16;52.98;99843.38;4890492;28;97668;-53
2023/11/30 00:36:49;;;;;;;4.17;2.73;;;11.00;99.90;;;12.33;52.62;99845.09;4895968;28;101087;-49
2023/11/30 00:39:15;;;;;;;3.93;2.00;;;11.30;99.90;;;12.47;51.99;99831.94;4886500;28;97328;-49
2023/11/30 00:41:41;;;;;;;3.33;2.53;;;11.60;99.90;;;12.53;51.83;99814.84;4888658;28;97080;-50
2023/11/30 00:44:06;;;;;;;3.40;2.43;;;11.60;99.90;;;12.69;51.54;99810.38;4900100;28;106246;-52
2023/11/30 00:46:32;;;;;;;3.33;2.40;;;11.90;99.90;;;12.86;50.94;99805.91;4893979;28;105937;-52
2023/11/30 00:48:58;;;;;;;4.37;3.47;;;12.30;99.90;;;12.80;47.82;99815.91;4894251;28;111245;-54
2023/11/30 00:51:24;;;;;;;5.73;2.83;;;12.20;99.90;;;12.46;47.94;99829.38;4886506;28;97984;-52
2023/11/30 00:53:50;;;;;;;4.03;2.60;;;11.60;99.90;;;12.28;51.00;99833.03;4897383;28;97652;-52
2023/11/30 00:56:16;;;;;;;3.67;2.57;;;11.10;99.90;;;12.24;52.26;99826.22;4890878;28;97609;-51
2023/11/30 00:58:41;;;;;;;5.47;3.00;;;11.00;99.90;;;12.14;49.11;99824.06;4886030;28;97629;-52
2023/11/30 01:01:07;;;;;;;6.07;4.53;;;10.90;99.90;;;11.85;48.58;99827.44;4881823;28;110243;-51
2023/11/30 01:03:33;;;;;;;7.27;4.53;;;10.50;99.90;;;11.58;47.78;99837.69;4884726;28;100226;-53
2023/11/30 01:05:59;;;;;;;5.60;3.77;;;10.20;99.90;;;11.38;48.55;99837.84;4881094;28;109833;-51
2023/11/30 01:08:25;;;;;;;5.83;4.10;;;9.90;99.90;;;11.31;51.02;99837.34;4892381;28;98854;-49
2023/11/30 01:10:51;;;;;;;5.30;3.80;;;9.80;99.90;;;11.15;51.43;99836.41;4891827;28;106190;-50
2023/11/30 01:13:16;;;;;;;4.13;2.70;;;9.70;99.90;;;11.15;53.60;99825.88;4883667;28;97996;-50
2023/11/30 01:15:42;;;;;;;3.73;2.37;;;9.60;99.90;;;11.30;55.29;99828.56;4885311;28;97867;-49
2023/11/30 01:18:08;;;;;;;5.37;2.60;;;9.80;99.90;;;11.47;54.75;99822.41;4887665;28;100006;-49
2023/11/30 01:20:34;;;;;;;2.07;1.60;;;10.20;99.90;;;11.59;54.30;99821.75;4890957;28;98480;-50
2023/11/30 01:23:00;;;;;;;3.00;2.33;;;10.40;99.90;;;11.74;53.42;99808.66;4892577;28;97716;-52
2023/11/30 01:25:26;;;;;;;6.33;3.63;;;10.60;99.90;;;11.53;49.94;99816.78;4890664;28;102279;-48
2023/11/30 01:27:52;;;;;;;4.17;3.20;;;10.40;99.90;;;11.32;51.34;99820.56;4891135;28;108633;-49
2023/11/30 01:30:19;;;;;;;3.17;2.87;;;10.00;99.90;;;11.26;53.75;99823.50;4895526;28;100546;-52
2023/11/30 01:32:45;;;;;;;4.03;2.33;;;9.90;99.90;;;11.40;54.53;99815.72;4891585;28;97791;-49
2023/11/30 01:35:10;;;;;;;1.90;1.70;;;10.00;99.90;;;11.65;54.43;99809.16;4888549;28;100345;-51
2023/11/30 01:37:38;;;;;;;4.00;2.40;;;10.40;99.90;;;11.90;53.73;99804.28;4888348;28;116035;-50
2023/11/30 01:40:09;;;;;;;2.70;2.00;;;10.90;99.90;;;12.16;53.17;99793.16;4888034;28;97631;-50
2023/11/30 01:42:36;;;;;;;2.10;1.90;;;11.40;99.90;;;12.46;52.17;99798.50;4889174;28;97036;-53
2023/11/30 01:45:05;;;;;;;3.63;2.47;;;11.90;99.90;;;12.46;49.58;99802.94;4879763;28;98292;-53
2023/11/30 01:47:32;;;;;;;2.77;1.70;;;11.90;99.90;;;12.27;51.77;99789.03;4893677;28;97289;-52
2023/11/30 01:50:00;;;;;;;3.43;2.10;;;11.40;99.90;;;12.38;52.34;99795.41;4896970;28;97502;-59
2023/11/30 01:52:28;;;;;;;3.97;2.27;;;11.40;99.90;;;12.43;51.99;99781.94;4899319;28;98438;-51
2023/11/30 01:54:56;;;;;;;4.93;3.50;;;11.50;99.90;;;12.29;50.01;99782.72;4895334;28;97165;-59
2023/11/30 01:57:23;;;;;;;3.60;2.27;;;11.20;99.90;;;12.08;49.80;99776.84;4895963;28;97945;-58
2023/11/30 01:59:49;;;;;;;3.87;2.53;;;10.90;99.90;;;12.02;52.65;99784.28;4900305;28;97259;-55
2023/11/30 02:02:18;;;;;;;3.83;2.17;;;10.70;99.90;;;12.14;53.06;99773.84;4887326;28;97264;-50
2023/11/30 02:04:49;;;;;;;2.57;1.90;;;10.80;99.90;;;12.31;52.47;99778.22;4917502;28;97023;-52
2023/11/30 02:07:15;;;;;;;2.67;2.07;;;11.20;99.90;;;12.49;52.34;99765.72;4912129;28;97530;-55
2023/11/30 02:09:40;;;;;;;2.33;1.70;;;11.60;99.90;;;12.62;51.87;99766.72;4919293;28;98158;-53
2023/11/30 02:12:06;;;;;;;2.50;1.90;;;11.90;99.90;;;12.73;51.20;99763.44;4926865;28;105828;-52
2023/11/30 02:14:32;;;;;;;2.67;1.70;;;12.00;99.90;;;12.65;51.57;99758.59;4914549;28;97454;-50
2023/11/30 02:16:58;;;;;;;3.57;2.00;;;11.80;99.90;;;12.66;51.10;99755.00;4934386;28;99654;-49
2023/11/30 02:19:24;;;;;;;2.53;1.93;;;11.70;99.90;;;12.60;51.10;99751.88;4922004;28;98216;-52
2023/11/30 02:21:51;;;;;;;2.43;1.93;;;11.60;99.90;;;12.54;51.93;99747.78;4912241;28;97416;-48
2023/11/30 02:24:17;;;;;;;2.57;1.73;;;11.50;99.90;;;12.66;51.81;99733.84;4930755;28;97997;-49
2023/11/30 02:26:43;;;;;;;3.40;2.30;;;11.70;99.90;;;12.60;49.16;99750.09;4911878;28;98319;-50
2023/11/30 02:29:09;;;;;;;3.57;2.57;;;11.70;99.90;;;12.24;49.25;99749.53;4922192;28;97358;-51
2023/11/30 02:31:34;;;;;;;3.97;2.40;;;11.20;99.90;;;12.25;51.53;99748.59;4921056;28;97299;-51
2023/11/30 02:34:00;;;;;;;4.33;3.60;;;11.00;99.90;;;12.05;49.69;99747.94;4928560;28;97393;-49
2023/11/30 02:36:26;;;;;;;4.07;2.70;;;10.80;99.90;;;12.00;52.18;99744.69;4902982;28;97611;-51
2023/11/30 02:38:52;;;;;;;3.87;2.77;;;10.60;99.90;;;11.98;51.93;99749.22;4921905;28;102236;-52
2023/11/30 02:41:18;;;;;;;2.83;2.13;;;10.60;99.90;;;11.83;52.27;99760.63;4931490;28;97084;-49
2023/11/30 02:43:44;;;;;;;3.90;2.80;;;10.40;99.90;;;11.74;52.00;99766.41;4918695;28;97486;-50
2023/11/30 02:46:10;;;;;;;4.27;2.67;;;10.30;99.90;;;11.65;52.72;99762.47;4929223;28;113506;-51
2023/11/30 02:48:39;;;;;;;4.43;2.77;;;10.20;99.90;;;11.65;52.53;99761.59;4920393;28;97183;-51
2023/11/30 02:51:05;;;;;;;3.30;2.30;;;10.20;99.90;;;11.69;53.86;99757.84;4900862;28;96993;-52
2023/11/30 02:53:31;;;;;;;3.80;2.50;;;10.30;99.90;;;11.81;53.74;99751.94;4921156;28;96753;-50
2023/11/30 02:56:00;;;;;;;3.07;2.00;;;10.50;99.90;;;11.98;53.66;99738.63;4915153;28;97407;-49
2023/11/30 02:58:25;;;;;;;2.47;1.80;;;10.90;99.90;;;12.18;53.11;99735.75;4920590;28;98286;-51
2023/11/30 03:00:51;;;;;;;2.03;1.60;;;11.30;99.90;;;12.49;52.16;99736.63;4922999;28;98628;-50
2023/11/30 03:03:17;;;;;;;1.80;1.53;;;11.90;99.90;;;12.75;51.38;99727.19;4923852;28;97207;-51
2023/11/30 03:05:43;;;;;;;2.30;1.60;;;12.30;99.90;;;12.94;50.83;99730.41;4919993;28;111621;-49
2023/11/30 03:08:09;;;;;;;3.93;2.40;;;12.60;99.90;;;12.91;48.11;99729.75;4916034;28;102615;-52
2023/11/30 03:10:34;;;;;;;3.67;1.87;;;12.50;99.90;;;12.79;49.49;99726.03;4924363;28;97313;-50
2023/11/30 03:13:00;;;;;;;7.80;4.13;;;12.00;99.90;;;12.41;46.63;99731.78;4922344;28;97430;-53
2023/11/30 03:15:27;;;;;;;6.20;3.17;;;11.40;99.90;;;12.11;49.32;99737.03;4912681;28;97980;-52
2023/11/30 03:17:53;;;;;;;3.43;2.40;;;10.90;99.90;;;11.89;51.04;99733.88;4920328;28;97347;-52
2023/11/30 03:20:19;;;;;;;3.30;2.07;;;10.50;99.90;;;11.93;53.32;99724.00;4921217;28;97292;-50
2023/11/30 03:22:45;;;;;;;3.23;2.27;;;10.50;99.90;;;11.96;53.01;99727.31;4925896;28;97521;-52
2023/11/30 03:25:10;;;;;;;3.90;2.17;;;10.60;99.90;;;11.99;53.05;99727.13;4921394;28;97174;-50
2023/11/30 03:27:36;;;;;;;2.77;1.97;;;10.70;99.90;;;12.12;53.18;99725.50;4922562;28;110501;-49
2023/11/30 03:30:04;;;;;;;3.10;2.30;;;10.90;99.90;;;12.27;52.48;99722.94;4905116;28;97396;-49
2023/11/30 03:32:30;;;;;;;1.80;1.50;;;11.20;99.90;;;12.38;52.15;99710.78;4920256;28;96712;-50
2023/11/30 03:34:56;;;;;;;3.80;2.20;;;11.50;99.90;;;12.73;51.73;99713.16;4925661;28;101368;-49
2023/11/30 03:37:21;;;;;;;2.87;1.70;;;12.10;99.90;;;12.94;51.12;99708.41;4927378;28;105459;-50
2023/11/30 03:39:50;;;;;;;2.43;1.53;;;12.60;99.90;;;13.07;50.82;99702.25;4919874;28;105636;-49
2023/11/30 03:42:16;;;;;;;2.37;1.63;;;12.80;99.90;;;13.06;50.42;99708.50;4919147;28;96947;-51
2023/11/30 03:44:42;;;;;;;4.80;2.33;;;12.70;99.90;;;13.01;49.46;99721.16;4919983;28;97772;-51
2023/11/30 03:47:07;;;;;;;2.57;1.67;;;12.40;99.90;;;13.03;50.48;99718.44;4890667;28;97214;-53
2023/11/30 03:49:33;;;;;;;3.60;2.03;;;12.20;99.90;;;13.07;50.71;99714.66;4925619;28;97115;-51
2023/11/30 03:51:59;;;;;;;2.13;1.70;;;12.30;99.90;;;13.22;50.36;99716.41;4922528;28;97405;-51
2023/11/30 03:54:25;;;;;;;2.20;1.77;;;12.70;99.90;;;13.29;49.99;99720.34;4924881;28;97364;-52
2023/11/30 03:56:50;;;;;;;3.23;2.57;;;12.90;99.90;;;13.21;48.57;99725.28;4926116;28;97390;-48
2023/11/30 03:59:16;;;;;;;5.60;3.30;;;12.70;99.90;;;12.92;47.35;99726.16;4923903;28;98845;-48
2023/11/30 04:01:42;;;;;;;2.33;1.83;;;12.10;99.90;;;12.67;49.39;99722.31;4924164;28;100620;-52
2023/11/30 04:04:08;;;;;;;7.77;4.93;;;11.60;99.90;;;12.30;48.63;99730.72;4923422;28;104139;-49
2023/11/30 04:06:33;;;;;;;6.70;3.90;;;11.10;99.90;;;12.17;50.08;99723.47;4925034;28;106025;-54
2023/11/30 04:08:59;;;;;;;2.50;1.60;;;10.90;99.90;;;12.31;52.42;99729.75;4927221;28;96725;-51
2023/11/30 04:11:25;;;;;;;3.23;1.70;;;11.00;99.90;;;12.41;52.14;99730.91;4920102;28;102250;-52
2023/11/30 04:13:51;;;;;;;1.70;1.60;;;11.30;99.90;;;12.48;52.15;99722.56;4927253;28;106350;-52
2023/11/30 04:16:17;;;;;;;2.50;1.47;;;11.50;99.90;;;12.67;51.76;99709.09;4928152;28;103768;-47
2023/11/30 04:18:44;;;;;;;2.40;1.73;;;11.90;99.90;;;12.91;51.23;99709.44;4931012;28;97080;-54
2023/11/30 04:21:10;;;;;;;3.03;2.07;;;12.40;99.90;;;13.07;50.31;99714.66;4929289;28;97398;-50
2023/11/30 04:23:36;;;;;;;2.40;1.47;;;12.70;99.90;;;13.09;50.58;99710.13;4925877;28;96970;-52
2023/11/30 04:26:03;;;;;;;2.37;1.67;;;12.60;99.90;;;13.09;50.38;99712.75;4908219;28;98787;-49
2023/11/30 04:28:29;;;;;;;1.67;1.30;;;12.40;99.90;;;13.25;50.08;99707.41;4921338;28;97816;-53
2023/11/30 04:30:55;;;;;;;2.20;2.00;;;12.70;99.90;;;13.35;49.87;99709.41;4923392;28;96906;-51
2023/11/30 04:33:20;;;;;;;2.47;1.87;;;12.90;99.90;;;13.27;49.55;99706.38;4931346;28;99075;-52
2023/11/30 04:35:46;;;;;;;3.67;2.00;;;12.70;99.90;;;13.28;49.39;99702.75;4924441;28;98377;-48
2023/11/30 04:38:12;;;;;;;2.97;2.13;;;12.60;99.90;;;13.03;49.39;99706.06;4925866;28;99156;-51
2023/11/30 04:40:38;;;;;;;3.30;2.20;;;12.20;99.90;;;12.91;50.18;99703.28;4921533;28;103389;-52
2023/11/30 04:43:04;;;;;;;2.47;1.80;;;11.90;99.90;;;12.86;50.45;99705.34;4927075;28;98294;-50
2023/11/30 04:45:29;;;;;;;2.23;1.70;;;11.70;99.90;;;12.99;50.84;99701.88;4919734;28;106249;-49
2023/11/30 04:47:56;;;;;;;1.67;1.50;;;12.10;99.90;;;13.11;50.37;99695.84;4921519;28;97919;-50
2023/11/30 04:50:22;;;;;;;2.23;1.53;;;12.40;99.90;;;13.30;50.18;99692.94;4930984;28;97684;-50
2023/11/30 04:52:48;;;;;;;2.20;1.80;;;12.80;99.90;;;13.57;49.25;99697.44;4924606;28;100926;-49
2023/11/30 04:55:14;;;;;;;1.77;1.53;;;13.20;99.90;;;13.81;48.72;99689.75;4926944;28;122926;-50
2023/11/30 04:57:40;;;;;;;3.03;1.50;;;13.60;99.90;;;13.93;48.22;99695.13;4933059;28;97336;-52
2023/11/30 05:00:07;;;;;;;1.70;1.47;;;13.90;99.90;;;14.16;47.92;99692.75;4923575;28;97214;-47
2023/11/30 05:02:36;;;;;;;1.70;1.53;;;14.20;99.90;;;14.30;47.51;99687.41;4895083;28;102562;-50
2023/11/30 05:05:02;;;;;;;1.93;1.53;;;14.40;99.90;;;14.42;47.06;99691.88;4917128;28;96949;-50
2023/11/30 05:07:28;;;;;;;3.30;1.67;;;14.50;99.90;;;14.57;46.61;99701.50;4926468;28;97245;-49
2023/11/30 05:09:54;;;;;;;3.37;1.63;;;14.70;99.90;;;14.72;46.28;99696.13;4925682;28;97436;-50
2023/11/30 05:12:20;;;;;;;4.07;1.90;;;14.90;99.90;;;14.83;45.83;99694.44;4926897;28;118487;-49
2023/11/30 05:14:46;;;;;;;2.23;1.60;;;15.00;99.90;;;14.86;45.54;99698.69;4914858;28;108423;-51
2023/11/30 05:17:11;;;;;;;3.30;1.80;;;15.00;99.90;;;14.87;45.63;99697.72;4926424;28;96908;-49
2023/11/30 05:19:37;;;;;;;2.20;1.50;;;15.00;99.90;;;14.92;45.59;99695.63;4903286;28;106608;-50
2023/11/30 05:22:03;;;;;;;1.83;1.60;;;15.10;99.90;;;14.99;45.53;99690.72;4926394;28;97531;-51
2023/11/30 05:24:29;;;;;;;2.17;1.70;;;15.10;99.90;;;15.07;45.13;99699.88;4921136;28;97061;-50
2023/11/30 05:26:55;;;;;;;2.13;1.70;;;15.30;99.90;;;15.13;45.17;99694.13;4928368;28;97512;-50
2023/11/30 05:29:21;;;;;;;3.07;1.90;;;15.30;99.90;;;15.18;44.95;99697.31;4930163;28;97168;-50
2023/11/30 05:31:47;;;;;;;2.97;1.87;;;15.40;99.90;;;15.23;44.90;99696.16;4931122;28;97152;-50
2023/11/30 05:34:13;;;;;;;1.97;1.40;;;15.50;99.90;;;15.28;44.48;99702.84;4925815;28;97371;-49
2023/11/30 05:36:39;;;;;;;3.70;2.00;;;15.50;99.90;;;15.32;44.18;99703.47;4930192;28;97410;-49
2023/11/30 05:39:06;;;;;;;2.57;1.73;;;15.60;99.90;;;15.31;42.33;99699.09;4933321;28;97474;-49
2023/11/30 05:41:32;;;;;;;2.97;2.00;;;15.60;99.90;;;15.31;44.37;99701.75;4906719;28;97411;-50
2023/11/30 05:43:57;;;;;;;2.00;1.80;;;15.50;99.90;;;15.09;44.20;99697.97;4901532;28;101215;-47
2023/11/30 05:46:23;;;;;;;2.90;1.90;;;15.10;99.90;;;15.05;45.04;99685.88;4926908;28;97319;-56
2023/11/30 05:48:49;;;;;;;2.40;1.77;;;14.90;99.90;;;15.10;44.86;99672.25;4930952;28;97349;-50
2023/11/30 05:51:15;;;;;;;2.53;1.70;;;15.10;99.90;;;15.15;44.85;99670.13;4905692;28;99459;-49
2023/11/30 05:53:41;;;;;;;2.57;1.47;;;15.20;99.90;;;15.15;45.06;99675.44;4935048;28;96796;-50
2023/11/30 05:56:07;;;;;;;2.57;1.80;;;15.20;99.90;;;15.12;44.77;99676.50;4931833;28;98581;-48
2023/11/30 05:58:33;;;;;;;2.27;1.73;;;15.20;99.90;;;15.07;44.74;99673.31;4929515;28;97531;-53
2023/11/30 06:00:59;;;;;;;1.63;1.53;;;15.10;99.90;;;15.06;44.95;99661.00;4935502;28;97615;-54
2023/11/30 06:03:25;;;;;;;1.87;1.70;;;15.00;99.90;;;15.11;44.83;99673.94;4935153;28;97046;-56
2023/11/30 06:05:51;;;;;;;2.50;1.77;;;15.20;99.90;;;15.16;45.08;99679.78;4931868;28;97505;-52
2023/11/30 06:08:17;;;;;;;3.30;2.03;;;15.20;99.90;;;15.24;44.73;99673.94;4927599;28;98776;-52
2023/11/30 06:10:43;;;;;;;2.90;1.97;;;15.40;99.90;;;15.31;44.34;99669.88;4927056;28;110227;-55
2023/11/30 06:13:09;;;;;;;2.47;1.70;;;15.50;99.90;;;15.33;44.27;99673.28;4927102;28;97481;-52
2023/11/30 06:15:34;;;;;;;1.97;1.60;;;15.50;99.90;;;15.38;44.24;99676.47;4930767;28;98056;-51
2023/11/30 06:18:00;;;;;;;3.23;2.17;;;15.60;99.90;;;15.37;44.13;99680.94;4934173;28;97502;-54
2023/11/30 06:20:26;;;;;;;2.67;1.90;;;15.60;99.90;;;15.21;43.41;99683.00;4926886;28;98385;-51
2023/11/30 06:22:52;;;;;;;2.77;2.20;;;15.30;99.90;;;14.92;43.42;99685.00;4916875;28;99052;-54
2023/11/30 06:25:17;;;;;;;3.83;2.43;;;14.70;99.90;;;14.70;44.93;99684.75;4925476;28;100983;-52
2023/11/30 06:27:43;;;;;;;2.63;1.60;;;14.30;99.90;;;14.64;45.95;99691.34;4930804;28;96809;-51
2023/11/30 06:30:09;;;;;;;3.43;2.10;;;14.20;99.90;;;14.44;46.08;99684.72;4903535;28;98327;-53
2023/11/30 06:32:35;;;;;;;2.03;1.50;;;13.90;99.90;;;14.37;46.57;99678.09;4922634;28;97351;-53
2023/11/30 06:35:02;;;;;;;2.53;1.83;;;13.90;99.90;;;14.30;46.85;99674.13;4931362;28;97433;-54
2023/11/30 06:37:28;;;;;;;4.60;1.77;;;13.80;99.90;;;14.33;47.03;99686.38;4923847;28;97533;-53
2023/11/30 06:39:53;;;;;;;2.97;1.70;;;13.90;99.90;;;14.35;46.67;99681.81;4925332;28;97042;-53
2023/11/30 06:42:19;;;;;;;1.93;1.73;;;14.00;99.90;;;14.34;46.76;99688.91;4915145;28;104586;-51
2023/11/30 06:44:47;;;;;;;2.60;1.77;;;14.00;99.90;;;14.21;46.97;99680.06;4929090;28;97263;-52
2023/11/30 06:47:13;;;;;;;2.53;1.70;;;13.70;99.90;;;14.31;47.10;99678.47;4932804;28;97606;-53
2023/11/30 06:49:39;;;;;;;2.50;1.63;;;13.90;99.90;;;14.36;46.95;99676.41;4924895;28;97079;-52
2023/11/30 06:52:05;;;;;;;3.97;2.23;;;14.10;99.90;;;14.36;46.30;99675.53;4936042;28;98216;-51
2023/11/30 06:54:31;;;;;;;2.90;1.80;;;14.10;99.90;;;14.44;46.56;99679.41;4924298;28;97330;-51
2023/11/30 06:56:57;;;;;;;2.20;1.93;;;14.20;99.90;;;14.41;46.52;99684.88;4924583;28;97583;-53
2023/11/30 06:59:23;;;;;;;1.97;1.60;;;14.20;99.90;;;14.41;46.69;99690.19;4929642;28;96946;-49
2023/11/30 07:01:49;;;;;;;4.27;1.80;;;14.10;99.90;;;14.40;46.81;99683.19;4926862;28;99711;-54
2023/11/30 07:04:16;;;;;;;2.23;1.80;;;14.10;99.90;;;14.50;46.77;99692.28;4922997;28;101363;-54
2023/11/30 07:06:41;;;;;;;2.73;1.70;;;14.30;99.90;;;14.49;46.13;99693.22;4919339;28;97273;-51
2023/11/30 07:09:12;;;;;;;3.10;1.80;;;14.30;99.90;;;14.42;46.95;99686.59;4924866;28;97827;-51
2023/11/30 07:11:39;;;;;;;2.20;1.30;;;14.20;99.90;;;14.50;46.82;99686.97;4921779;28;97278;-51
2023/11/30 07:14:05;;;;;;;2.60;1.70;;;14.30;99.90;;;14.58;46.34;99683.78;4921209;28;97057;-53
2023/11/30 07:16:31;;;;;;;2.50;1.60;;;14.40;99.90;;;14.63;46.33;99688.81;4925989;28;97282;-52
2023/11/30 07:18:57;;;;;;;3.03;1.73;;;14.50;99.90;;;14.72;46.21;99678.38;4910252;28;97508;-51
2023/11/30 07:21:23;;;;;;;2.77;1.80;;;14.70;99.90;;;14.84;45.94;99677.56;4926522;28;96947;-54
2023/11/30 07:23:49;;;;;;;3.97;1.83;;;14.90;99.90;;;14.89;45.93;99666.63;4903515;28;97621;-51
2023/11/30 07:26:16;;;;;;;1.90;1.40;;;14.90;99.90;;;14.92;45.63;99663.78;4924517;28;105888;-50
2023/11/30 07:28:43;;;;;;;2.50;2.10;;;15.00;99.90;;;15.00;45.71;99658.75;4927876;28;97617;-54
2023/11/30 07:31:18;;;;;;;2.20;1.83;;;15.10;99.90;;;15.05;45.33;99653.16;4910392;28;99231;-49
2023/11/30 07:33:43;;;;;;;3.57;1.60;;;15.10;99.90;;;15.07;45.18;99661.84;4921962;28;99674;-51
2023/11/30 07:36:10;;;;;;;2.67;2.00;;;15.10;99.90;;;15.05;44.89;99664.63;4923246;28;101580;-53
2023/11/30 07:38:36;;;;;;;3.00;1.90;;;15.10;99.90;;;15.05;45.25;99664.63;4912895;28;98379;-50
2023/11/30 07:41:03;;;;;;;3.07;2.10;;;15.10;99.90;;;15.06;45.26;99674.28;4926353;28;97495;-52
2023/11/30 07:43:31;;;;;;;2.60;2.13;;;15.10;99.90;;;15.02;44.98;99675.44;4924112;28;98827;-50
2023/11/30 07:45:57;;;;;;;2.97;1.97;;;15.00;99.90;;;14.80;43.74;99669.91;4928296;28;96953;-53
2023/11/30 07:48:23;;;;;;;3.17;2.07;;;14.60;99.90;;;14.53;45.14;99683.25;4927238;28;97689;-55
2023/11/30 07:50:51;;;;;;;3.03;2.07;;;14.00;99.90;;;14.27;46.47;99677.84;4925323;28;99725;-58
2023/11/30 07:53:18;;;;;;;2.87;1.97;;;13.60;99.90;;;14.05;46.80;99676.72;4937268;28;96994;-51
2023/11/30 07:55:47;;;;;;;1.93;1.47;;;13.20;99.90;;;14.05;47.70;99676.72;5028438;22;97118;-53
2023/11/30 07:58:13;;;;;;;2.33;1.50;;;13.20;99.90;;;14.16;47.43;99663.59;4938778;28;97772;-58
2023/11/30 08:00:39;;;;;;;4.17;1.80;;;13.60;99.90;;;14.27;47.30;99669.03;4943875;28;97679;-50
2023/11/30 08:03:04;;;;;;;1.87;1.70;;;13.90;99.90;;;14.29;46.84;99664.47;4945141;28;97871;-53
2023/11/30 08:05:30;;;;;;;2.77;1.93;;;14.00;99.90;;;14.35;47.14;99663.25;4949728;28;97295;-55
2023/11/30 08:07:56;;;;;;;2.00;1.37;;;14.10;99.90;;;14.40;46.81;99664.63;4943861;28;98058;-52
2023/11/30 08:10:23;;;;;;;3.23;2.17;;;14.20;99.90;;;14.32;46.81;99666.06;4926910;28;109915;-54
2023/11/30 08:12:49;;;;;;;1.93;1.60;;;14.00;99.90;;;14.38;46.86;99668.31;4939642;28;97210;-53
2023/11/30 08:15:14;;;;;;;4.30;2.60;;;14.10;99.90;;;14.39;45.76;99670.88;4943137;28;97441;-51
2023/11/30 08:17:42;;;;;;;2.40;1.67;;;14.20;99.90;;;14.38;47.03;99669.19;4943500;28;112527;-51
2023/11/30 08:20:13;;;;;;;2.50;1.93;;;14.10;99.90;;;14.30;46.50;99666.16;4925987;28;97233;-49
2023/11/30 08:22:40;;;;;;;5.53;2.43;;;13.90;99.90;;;14.13;46.82;99661.13;4941036;28;97638;-50
2023/11/30 08:25:07;;;;;;;2.83;1.90;;;13.60;99.90;;;14.11;47.01;99671.00;4943938;28;96807;-51
2023/11/30 08:27:33;;;;;;;2.70;1.73;;;13.60;99.90;;;14.02;47.69;99671.59;4943966;28;97566;-49
2023/11/30 08:29:59;;;;;;;2.87;1.60;;;13.40;99.90;;;13.99;47.79;99668.19;4944687;28;98693;-52
2023/11/30 08:32:25;;;;;;;3.87;2.27;;;13.30;99.90;;;13.88;47.92;99676.00;4947604;28;97088;-53
2023/11/30 08:34:52;;;;;;;3.40;2.20;;;13.10;99.90;;;13.92;48.23;99674.88;4951144;28;105609;-53
2023/11/30 08:37:18;;;;;;;2.37;1.80;;;13.30;99.90;;;14.00;47.74;99677.00;4943229;28;97438;-50
2023/11/30 08:39:45;;;;;;;1.80;1.33;;;13.50;99.90;;;13.95;48.01;99682.59;4903380;28;99759;-51
2023/11/30 08:42:11;;;;;;;2.40;1.30;;;13.50;99.90;;;14.07;47.89;99677.47;4906529;28;99214;-51
2023/11/30 08:44:37;;;;;;;1.90;1.30;;;13.70;99.90;;;14.12;47.58;99667.41;4904074;28;99636;-51
2023/11/30 08:47:03;;;;;;;2.10;1.57;;;13.80;99.90;;;14.21;47.42;99672.09;4905268;28;99204;-53
2023/11/30 08:49:29;;;;;;;1.90;1.47;;;13.90;99.90;;;14.34;47.13;99673.00;4902522;28;100271;-48
2023/11/30 08:51:55;;;;;;;2.87;1.73;;;14.20;99.90;;;14.45;46.92;99669.63;4908999;28;121535;-51
2023/11/30 08:54:21;;;;;;;3.63;1.80;;;14.30;99.90;;;14.53;46.46;99662.88;4910970;28;100352;-49
2023/11/30 08:56:47;;;;;;;2.00;1.40;;;14.50;99.90;;;14.57;46.12;99672.31;4893059;28;100761;-49
2023/11/30 08:59:13;;;;;;;1.60;1.33;;;14.50;99.90;;;14.49;46.64;99661.38;4888612;28;97397;-49
2023/11/30 09:01:39;;;;;;;2.80;1.60;;;14.30;99.90;;;14.48;46.87;99658.84;4893080;28;100157;-52
2023/11/30 09:04:08;;;;;;;4.33;2.20;;;14.20;99.90;;;14.45;46.72;99649.25;4901806;28;97983;-53
2023/11/30 09:06:34;;;;;;;2.67;1.80;;;14.20;99.90;;;14.49;47.02;99650.78;4906209;28;97115;-51
2023/11/30 09:09:01;;;;;;;3.00;1.70;;;14.20;99.90;;;14.50;46.99;99651.63;4898044;28;97041;-51
2023/11/30 09:11:29;;;;;;;3.33;1.60;;;14.30;99.90;;;14.54;47.08;99653.97;4912861;28;97908;-49
2023/11/30 09:13:57;;;;;;;2.03;1.50;;;14.30;99.90;;;14.62;46.59;99649.94;4910729;28;97023;-52
2023/11/30 09:16:25;;;;;;;2.43;1.43;;;14.40;99.90;;;14.72;45.95;99661.63;4897402;28;101845;-53
2023/11/30 09:18:54;;;;;;;1.57;1.40;;;14.70;99.90;;;14.71;46.42;99659.91;4907727;28;103688;-51
2023/11/30 09:21:21;;;;;;;3.10;1.70;;;14.60;99.90;;;14.81;46.41;99659.19;4892579;28;98684;-50
2023/11/30 09:23:47;;;;;;;1.97;1.50;;;14.70;99.90;;;14.85;45.98;99662.47;4900013;28;99964;-51
2023/11/30 09:26:12;;;;;;;2.87;1.70;;;14.80;99.90;;;14.87;46.16;99658.75;4900576;28;98358;-51
2023/11/30 09:28:38;;;;;;;1.40;1.27;;;14.80;99.90;;;14.96;45.93;99664.41;4900965;28;99856;-52
2023/11/30 09:31:05;;;;;;;3.07;1.70;;;15.00;99.90;;;14.95;45.95;99660.91;4899539;28;97717;-53
2023/11/30 09:33:32;;;;;;;2.53;1.30;;;14.90;99.90;;;15.06;45.48;99665.47;4908263;28;97375;-51
2023/11/30 09:35:59;;;;;;;2.63;1.43;;;15.10;99.90;;;15.16;45.37;99662.03;4904133;28;113324;-51
2023/11/30 09:38:25;;;;;;;3.53;1.57;;;15.30;99.90;;;15.16;45.33;99664.69;4902354;28;98353;-55
2023/11/30 09:40:55;;;;;;;3.03;1.70;;;15.30;99.90;;;15.17;45.04;99657.56;4906712;28;100832;-51
2023/11/30 09:43:21;;;;;;;1.97;1.60;;;15.30;99.90;;;15.21;45.16;99655.56;4907426;28;98456;-50
2023/11/30 09:45:52;;;;;;;1.73;1.37;;;15.30;99.90;;;15.25;44.88;99659.72;4891760;28;99901;-52
2023/11/30 09:48:18;;;;;;;3.17;1.40;;;15.30;99.90;;;15.31;45.05;99659.25;4916119;28;98807;-49
2023/11/30 09:50:44;;;;;;;2.07;1.50;;;15.50;99.90;;;15.33;44.82;99662.66;4870434;28;97415;-51
2023/11/30 09:53:10;;;;;;;2.00;1.53;;;15.50;99.90;;;15.37;44.85;99659.69;4917275;28;98776;-51
2023/11/30 09:55:37;;;;;;;1.87;1.50;;;15.50;99.90;;;15.26;43.98;99658.75;4888893;28;100774;-50
2023/11/30 09:58:06;;;;;;;2.37;1.40;;;15.30;99.90;;;15.18;44.90;99665.44;4888067;28;97519;-50
2023/11/30 10:00:32;;;;;;;3.73;2.03;;;15.10;99.90;;;15.08;45.44;99653.78;4907650;28;101156;-52
2023/11/30 10:02:59;;;;;;;2.93;1.17;;;15.00;99.90;;;15.14;45.06;99645.38;4902880;28;98097;-51
2023/11/30 10:05:27;;;;;;;2.20;1.43;;;15.10;99.90;;;15.24;44.97;99652.69;4905070;28;99611;-60
2023/11/30 10:07:53;;;;;;;4.53;1.73;;;15.30;99.90;;;15.30;44.85;99653.09;4911372;28;100801;-53
2023/11/30 10:10:19;;;;;;;2.03;1.40;;;15.40;99.90;;;15.33;44.83;99657.34;4889342;28;99752;-52
2023/11/30 10:12:45;;;;;;;2.10;1.40;;;15.40;99.90;;;15.33;44.75;99654.69;4906339;28;98609;-52